sensor_id;sensor_type;location;lat;lon;timestamp;P1;durP1;ratioP1;P2;durP2;ratioP2
78989;SDS011;68390;52.130;21.218;2023-07-02T00:01:42;22.75;;;14.02;;
78989;SDS011;68390;52.130;21.218;2023-07-02T00:04:08;23.63;;;16.48;;
78989;SDS011;68390;52.130;21.218;2023-07-02T00:06:34;27.02;;;18.52;;
78989;SDS011;68390;52.130;21.218;2023-07-02T00:09:08;21.90;;;13.52;;
78989;SDS011;68390;52.130;21.218;2023-07-02T00:11:38;27.42;;;16.10;;
78989;SDS011;68390;52.130;21.218;2023-07-02T00:14:07;25.23;;;16.45;;
78989;SDS011;68390;52.130;21.218;2023-07-02T00:16:33;25.45;;;16.33;;
78989;SDS011;68390;52.130;21.218;2023-07-02T00:18:58;24.35;;;15.68;;
78989;SDS011;68390;52.130;21.218;2023-07-02T00:21:25;27.75;;;16.63;;
78989;SDS011;68390;52.130;21.218;2023-07-02T00:23:55;26.95;;;16.70;;
78989;SDS011;68390;52.130;21.218;2023-07-02T00:26:24;17.50;;;11.20;;
78989;SDS011;68390;52.130;21.218;2023-07-02T00:28:51;19.50;;;12.57;;
78989;SDS011;68390;52.130;21.218;2023-07-02T00:31:17;26.85;;;16.65;;
78989;SDS011;68390;52.130;21.218;2023-07-02T00:33:43;23.60;;;15.90;;
78989;SDS011;68390;52.130;21.218;2023-07-02T00:36:08;22.35;;;15.38;;
78989;SDS011;68390;52.130;21.218;2023-07-02T00:38:39;27.65;;;15.98;;
78989;SDS011;68390;52.130;21.218;2023-07-02T00:41:04;23.42;;;14.68;;
78989;SDS011;68390;52.130;21.218;2023-07-02T00:43:29;18.67;;;12.75;;
78989;SDS011;68390;52.130;21.218;2023-07-02T00:45:55;21.00;;;14.35;;
78989;SDS011;68390;52.130;21.218;2023-07-02T00:48:20;25.95;;;16.45;;
78989;SDS011;68390;52.130;21.218;2023-07-02T00:50:46;24.42;;;14.45;;
78989;SDS011;68390;52.130;21.218;2023-07-02T00:53:11;23.38;;;14.43;;
78989;SDS011;68390;52.130;21.218;2023-07-02T00:55:38;21.55;;;13.38;;
78989;SDS011;68390;52.130;21.218;2023-07-02T00:58:03;25.45;;;15.00;;
78989;SDS011;68390;52.130;21.218;2023-07-02T01:00:29;30.38;;;17.40;;
78989;SDS011;68390;52.130;21.218;2023-07-02T01:02:54;23.25;;;14.45;;
78989;SDS011;68390;52.130;21.218;2023-07-02T01:05:24;21.73;;;13.93;;
78989;SDS011;68390;52.130;21.218;2023-07-02T01:08:06;24.98;;;15.38;;
78989;SDS011;68390;52.130;21.218;2023-07-02T01:10:32;28.58;;;17.63;;
78989;SDS011;68390;52.130;21.218;2023-07-02T01:13:00;28.20;;;16.40;;
78989;SDS011;68390;52.130;21.218;2023-07-02T01:15:30;30.10;;;17.83;;
78989;SDS011;68390;52.130;21.218;2023-07-02T01:17:56;30.77;;;19.10;;
78989;SDS011;68390;52.130;21.218;2023-07-02T01:20:22;23.85;;;14.88;;
78989;SDS011;68390;52.130;21.218;2023-07-02T01:22:49;23.90;;;15.90;;
78989;SDS011;68390;52.130;21.218;2023-07-02T01:25:18;28.30;;;16.95;;
78989;SDS011;68390;52.130;21.218;2023-07-02T01:27:43;29.77;;;19.08;;
78989;SDS011;68390;52.130;21.218;2023-07-02T01:30:09;30.63;;;19.70;;
78989;SDS011;68390;52.130;21.218;2023-07-02T01:32:35;30.48;;;18.38;;
78989;SDS011;68390;52.130;21.218;2023-07-02T01:35:02;32.05;;;20.17;;
78989;SDS011;68390;52.130;21.218;2023-07-02T01:37:27;32.80;;;19.08;;
78989;SDS011;68390;52.130;21.218;2023-07-02T01:39:53;31.73;;;19.17;;
78989;SDS011;68390;52.130;21.218;2023-07-02T01:42:18;23.77;;;15.27;;
78989;SDS011;68390;52.130;21.218;2023-07-02T01:44:45;29.60;;;17.38;;
78989;SDS011;68390;52.130;21.218;2023-07-02T01:47:11;34.05;;;19.60;;
78989;SDS011;68390;52.130;21.218;2023-07-02T01:49:37;38.03;;;22.73;;
78989;SDS011;68390;52.130;21.218;2023-07-02T01:52:03;37.47;;;21.80;;
78989;SDS011;68390;52.130;21.218;2023-07-02T01:54:29;35.88;;;21.17;;
78989;SDS011;68390;52.130;21.218;2023-07-02T01:56:55;31.38;;;18.48;;
78989;SDS011;68390;52.130;21.218;2023-07-02T01:59:21;32.75;;;18.95;;
78989;SDS011;68390;52.130;21.218;2023-07-02T02:01:47;37.22;;;19.65;;
78989;SDS011;68390;52.130;21.218;2023-07-02T02:04:13;30.25;;;18.70;;
78989;SDS011;68390;52.130;21.218;2023-07-02T02:06:39;28.02;;;16.85;;
78989;SDS011;68390;52.130;21.218;2023-07-02T02:09:05;28.45;;;17.80;;
78989;SDS011;68390;52.130;21.218;2023-07-02T02:11:31;39.15;;;22.95;;
78989;SDS011;68390;52.130;21.218;2023-07-02T02:13:58;36.55;;;21.40;;
78989;SDS011;68390;52.130;21.218;2023-07-02T02:16:23;27.55;;;17.42;;
78989;SDS011;68390;52.130;21.218;2023-07-02T02:18:49;34.50;;;20.58;;
78989;SDS011;68390;52.130;21.218;2023-07-02T02:21:18;37.92;;;22.52;;
78989;SDS011;68390;52.130;21.218;2023-07-02T02:23:46;40.03;;;25.65;;
78989;SDS011;68390;52.130;21.218;2023-07-02T02:26:12;40.67;;;23.35;;
78989;SDS011;68390;52.130;21.218;2023-07-02T02:28:37;38.22;;;21.90;;
78989;SDS011;68390;52.130;21.218;2023-07-02T02:31:02;38.03;;;22.60;;
78989;SDS011;68390;52.130;21.218;2023-07-02T02:33:28;42.03;;;24.38;;
78989;SDS011;68390;52.130;21.218;2023-07-02T02:35:54;39.92;;;23.55;;
78989;SDS011;68390;52.130;21.218;2023-07-02T02:38:19;31.60;;;19.20;;
78989;SDS011;68390;52.130;21.218;2023-07-02T02:40:44;34.92;;;21.02;;
78989;SDS011;68390;52.130;21.218;2023-07-02T02:43:10;43.13;;;25.20;;
78989;SDS011;68390;52.130;21.218;2023-07-02T02:45:35;40.20;;;25.73;;
78989;SDS011;68390;52.130;21.218;2023-07-02T02:48:00;44.78;;;24.80;;
78989;SDS011;68390;52.130;21.218;2023-07-02T02:50:26;41.67;;;25.80;;
78989;SDS011;68390;52.130;21.218;2023-07-02T02:52:52;38.97;;;23.63;;
78989;SDS011;68390;52.130;21.218;2023-07-02T02:55:18;32.35;;;20.63;;
78989;SDS011;68390;52.130;21.218;2023-07-02T02:57:43;40.13;;;23.65;;
78989;SDS011;68390;52.130;21.218;2023-07-02T03:00:09;42.30;;;25.38;;
78989;SDS011;68390;52.130;21.218;2023-07-02T03:02:36;40.45;;;24.55;;
78989;SDS011;68390;52.130;21.218;2023-07-02T03:05:01;40.08;;;24.00;;
78989;SDS011;68390;52.130;21.218;2023-07-02T03:07:27;40.25;;;24.85;;
78989;SDS011;68390;52.130;21.218;2023-07-02T03:09:53;42.13;;;24.67;;
78989;SDS011;68390;52.130;21.218;2023-07-02T03:12:18;36.38;;;23.20;;
78989;SDS011;68390;52.130;21.218;2023-07-02T03:14:44;39.22;;;23.38;;
78989;SDS011;68390;52.130;21.218;2023-07-02T03:17:09;44.60;;;25.48;;
78989;SDS011;68390;52.130;21.218;2023-07-02T03:19:35;39.92;;;25.20;;
78989;SDS011;68390;52.130;21.218;2023-07-02T03:22:00;43.58;;;25.17;;
78989;SDS011;68390;52.130;21.218;2023-07-02T03:24:26;38.97;;;24.13;;
78989;SDS011;68390;52.130;21.218;2023-07-02T03:26:51;40.40;;;24.40;;
78989;SDS011;68390;52.130;21.218;2023-07-02T03:29:16;37.60;;;25.83;;
78989;SDS011;68390;52.130;21.218;2023-07-02T03:31:44;35.42;;;21.95;;
78989;SDS011;68390;52.130;21.218;2023-07-02T03:34:10;39.63;;;24.02;;
78989;SDS011;68390;52.130;21.218;2023-07-02T03:36:38;38.85;;;24.23;;
78989;SDS011;68390;52.130;21.218;2023-07-02T03:39:04;34.33;;;20.73;;
78989;SDS011;68390;52.130;21.218;2023-07-02T03:41:30;32.92;;;20.83;;
78989;SDS011;68390;52.130;21.218;2023-07-02T03:43:55;40.10;;;22.10;;
78989;SDS011;68390;52.130;21.218;2023-07-02T03:46:21;33.43;;;21.07;;
78989;SDS011;68390;52.130;21.218;2023-07-02T03:48:46;39.38;;;24.05;;
78989;SDS011;68390;52.130;21.218;2023-07-02T03:51:11;37.53;;;23.02;;
78989;SDS011;68390;52.130;21.218;2023-07-02T03:53:40;36.67;;;22.35;;
78989;SDS011;68390;52.130;21.218;2023-07-02T03:56:06;33.15;;;21.52;;
78989;SDS011;68390;52.130;21.218;2023-07-02T03:58:31;35.25;;;22.48;;
78989;SDS011;68390;52.130;21.218;2023-07-02T04:00:56;41.58;;;22.95;;
78989;SDS011;68390;52.130;21.218;2023-07-02T04:03:22;33.17;;;21.58;;
78989;SDS011;68390;52.130;21.218;2023-07-02T04:05:47;26.73;;;18.77;;
78989;SDS011;68390;52.130;21.218;2023-07-02T04:08:13;34.58;;;21.52;;
78989;SDS011;68390;52.130;21.218;2023-07-02T04:10:38;26.02;;;18.42;;
78989;SDS011;68390;52.130;21.218;2023-07-02T04:13:04;29.52;;;20.80;;
78989;SDS011;68390;52.130;21.218;2023-07-02T04:15:29;30.60;;;19.60;;
78989;SDS011;68390;52.130;21.218;2023-07-02T04:17:54;24.33;;;16.30;;
78989;SDS011;68390;52.130;21.218;2023-07-02T04:20:20;29.05;;;19.10;;
78989;SDS011;68390;52.130;21.218;2023-07-02T04:22:45;27.92;;;18.13;;
78989;SDS011;68390;52.130;21.218;2023-07-02T04:25:11;27.10;;;16.67;;
78989;SDS011;68390;52.130;21.218;2023-07-02T04:27:41;27.88;;;18.63;;
78989;SDS011;68390;52.130;21.218;2023-07-02T04:30:10;25.50;;;18.05;;
78989;SDS011;68390;52.130;21.218;2023-07-02T04:32:36;18.95;;;14.77;;
78989;SDS011;68390;52.130;21.218;2023-07-02T04:35:04;27.02;;;18.83;;
78989;SDS011;68390;52.130;21.218;2023-07-02T04:37:30;29.30;;;18.95;;
78989;SDS011;68390;52.130;21.218;2023-07-02T04:39:56;30.45;;;19.95;;
78989;SDS011;68390;52.130;21.218;2023-07-02T04:42:21;23.83;;;17.60;;
78989;SDS011;68390;52.130;21.218;2023-07-02T04:44:46;27.92;;;18.58;;
78989;SDS011;68390;52.130;21.218;2023-07-02T04:47:12;21.95;;;15.52;;
78989;SDS011;68390;52.130;21.218;2023-07-02T04:49:38;28.05;;;18.08;;
78989;SDS011;68390;52.130;21.218;2023-07-02T04:52:03;26.10;;;16.65;;
78989;SDS011;68390;52.130;21.218;2023-07-02T04:54:29;20.17;;;15.20;;
78989;SDS011;68390;52.130;21.218;2023-07-02T04:56:54;21.77;;;15.20;;
78989;SDS011;68390;52.130;21.218;2023-07-02T04:59:20;23.70;;;16.25;;
78989;SDS011;68390;52.130;21.218;2023-07-02T05:01:46;22.98;;;16.15;;
78989;SDS011;68390;52.130;21.218;2023-07-02T05:04:11;22.67;;;15.80;;
78989;SDS011;68390;52.130;21.218;2023-07-02T05:06:37;22.50;;;15.30;;
78989;SDS011;68390;52.130;21.218;2023-07-02T05:09:02;23.45;;;15.38;;
78989;SDS011;68390;52.130;21.218;2023-07-02T05:11:28;22.00;;;15.50;;
78989;SDS011;68390;52.130;21.218;2023-07-02T05:13:53;20.95;;;14.05;;
78989;SDS011;68390;52.130;21.218;2023-07-02T05:16:19;21.08;;;13.55;;
78989;SDS011;68390;52.130;21.218;2023-07-02T05:18:44;21.52;;;14.43;;
78989;SDS011;68390;52.130;21.218;2023-07-02T05:21:11;15.13;;;11.35;;
78989;SDS011;68390;52.130;21.218;2023-07-02T05:23:36;18.42;;;12.98;;
78989;SDS011;68390;52.130;21.218;2023-07-02T05:26:02;17.63;;;13.50;;
78989;SDS011;68390;52.130;21.218;2023-07-02T05:28:27;20.80;;;13.95;;
78989;SDS011;68390;52.130;21.218;2023-07-02T05:30:53;20.45;;;13.75;;
78989;SDS011;68390;52.130;21.218;2023-07-02T05:33:18;20.52;;;13.55;;
78989;SDS011;68390;52.130;21.218;2023-07-02T05:35:43;18.08;;;12.52;;
78989;SDS011;68390;52.130;21.218;2023-07-02T05:38:11;20.55;;;13.05;;
78989;SDS011;68390;52.130;21.218;2023-07-02T05:40:36;16.23;;;12.50;;
78989;SDS011;68390;52.130;21.218;2023-07-02T05:43:02;16.85;;;12.55;;
78989;SDS011;68390;52.130;21.218;2023-07-02T05:45:28;18.13;;;12.07;;
78989;SDS011;68390;52.130;21.218;2023-07-02T05:47:54;19.70;;;12.90;;
78989;SDS011;68390;52.130;21.218;2023-07-02T05:50:19;19.60;;;13.55;;
78989;SDS011;68390;52.130;21.218;2023-07-02T05:52:44;15.48;;;11.85;;
78989;SDS011;68390;52.130;21.218;2023-07-02T05:55:10;15.88;;;11.57;;
78989;SDS011;68390;52.130;21.218;2023-07-02T05:57:36;16.73;;;11.15;;
78989;SDS011;68390;52.130;21.218;2023-07-02T06:00:04;17.33;;;11.82;;
78989;SDS011;68390;52.130;21.218;2023-07-02T06:02:30;15.93;;;11.63;;
78989;SDS011;68390;52.130;21.218;2023-07-02T06:04:56;15.10;;;10.80;;
78989;SDS011;68390;52.130;21.218;2023-07-02T06:07:22;15.45;;;11.55;;
78989;SDS011;68390;52.130;21.218;2023-07-02T06:09:47;14.52;;;10.00;;
78989;SDS011;68390;52.130;21.218;2023-07-02T06:12:13;15.68;;;11.57;;
78989;SDS011;68390;52.130;21.218;2023-07-02T06:14:38;17.02;;;10.88;;
78989;SDS011;68390;52.130;21.218;2023-07-02T06:17:03;15.40;;;10.43;;
78989;SDS011;68390;52.130;21.218;2023-07-02T06:19:31;16.58;;;10.80;;
78989;SDS011;68390;52.130;21.218;2023-07-02T06:21:57;14.82;;;10.55;;
78989;SDS011;68390;52.130;21.218;2023-07-02T06:24:22;14.43;;;9.95;;
78989;SDS011;68390;52.130;21.218;2023-07-02T06:26:48;15.15;;;10.40;;
78989;SDS011;68390;52.130;21.218;2023-07-02T06:29:13;15.00;;;10.07;;
78989;SDS011;68390;52.130;21.218;2023-07-02T06:31:38;15.45;;;10.98;;
78989;SDS011;68390;52.130;21.218;2023-07-02T06:34:04;16.52;;;11.18;;
78989;SDS011;68390;52.130;21.218;2023-07-02T06:36:29;16.45;;;10.18;;
78989;SDS011;68390;52.130;21.218;2023-07-02T06:38:54;14.40;;;10.40;;
78989;SDS011;68390;52.130;21.218;2023-07-02T06:41:20;14.63;;;10.60;;
78989;SDS011;68390;52.130;21.218;2023-07-02T06:43:45;15.43;;;10.65;;
78989;SDS011;68390;52.130;21.218;2023-07-02T06:46:11;15.48;;;9.75;;
78989;SDS011;68390;52.130;21.218;2023-07-02T06:48:37;14.10;;;10.27;;
78989;SDS011;68390;52.130;21.218;2023-07-02T06:51:02;16.92;;;10.23;;
78989;SDS011;68390;52.130;21.218;2023-07-02T06:53:27;16.15;;;10.00;;
78989;SDS011;68390;52.130;21.218;2023-07-02T06:55:53;14.20;;;9.32;;
78989;SDS011;68390;52.130;21.218;2023-07-02T06:58:18;13.88;;;10.10;;
78989;SDS011;68390;52.130;21.218;2023-07-02T07:00:44;14.43;;;9.35;;
78989;SDS011;68390;52.130;21.218;2023-07-02T07:03:10;13.23;;;9.15;;
78989;SDS011;68390;52.130;21.218;2023-07-02T07:05:35;14.02;;;9.30;;
78989;SDS011;68390;52.130;21.218;2023-07-02T07:08:00;12.90;;;9.30;;
78989;SDS011;68390;52.130;21.218;2023-07-02T07:10:26;12.02;;;7.88;;
78989;SDS011;68390;52.130;21.218;2023-07-02T07:12:51;10.48;;;7.80;;
78989;SDS011;68390;52.130;21.218;2023-07-02T07:15:17;13.25;;;8.00;;
78989;SDS011;68390;52.130;21.218;2023-07-02T07:17:43;11.85;;;7.53;;
78989;SDS011;68390;52.130;21.218;2023-07-02T07:20:08;11.27;;;7.53;;
78989;SDS011;68390;52.130;21.218;2023-07-02T07:22:34;10.80;;;6.70;;
78989;SDS011;68390;52.130;21.218;2023-07-02T07:24:59;11.35;;;7.05;;
78989;SDS011;68390;52.130;21.218;2023-07-02T07:27:25;9.68;;;6.20;;
78989;SDS011;68390;52.130;21.218;2023-07-02T07:29:50;11.20;;;7.03;;
78989;SDS011;68390;52.130;21.218;2023-07-02T07:32:15;10.85;;;6.90;;
78989;SDS011;68390;52.130;21.218;2023-07-02T07:34:41;9.13;;;6.65;;
78989;SDS011;68390;52.130;21.218;2023-07-02T07:37:07;9.55;;;6.30;;
78989;SDS011;68390;52.130;21.218;2023-07-02T07:39:32;9.73;;;6.25;;
78989;SDS011;68390;52.130;21.218;2023-07-02T07:41:58;9.30;;;6.18;;
78989;SDS011;68390;52.130;21.218;2023-07-02T07:44:23;8.80;;;5.80;;
78989;SDS011;68390;52.130;21.218;2023-07-02T07:46:53;8.77;;;5.70;;
78989;SDS011;68390;52.130;21.218;2023-07-02T07:49:19;9.98;;;6.63;;
78989;SDS011;68390;52.130;21.218;2023-07-02T07:51:44;8.43;;;6.50;;
78989;SDS011;68390;52.130;21.218;2023-07-02T07:54:09;8.88;;;6.10;;
78989;SDS011;68390;52.130;21.218;2023-07-02T07:56:35;9.93;;;6.28;;
78989;SDS011;68390;52.130;21.218;2023-07-02T07:59:00;8.57;;;5.50;;
78989;SDS011;68390;52.130;21.218;2023-07-02T08:01:26;10.57;;;5.95;;
78989;SDS011;68390;52.130;21.218;2023-07-02T08:03:51;8.32;;;5.65;;
78989;SDS011;68390;52.130;21.218;2023-07-02T08:06:17;7.93;;;5.38;;
78989;SDS011;68390;52.130;21.218;2023-07-02T08:08:42;10.02;;;5.47;;
78989;SDS011;68390;52.130;21.218;2023-07-02T08:11:07;5.82;;;4.70;;
78989;SDS011;68390;52.130;21.218;2023-07-02T08:13:33;8.48;;;4.80;;
78989;SDS011;68390;52.130;21.218;2023-07-02T08:15:58;10.73;;;4.83;;
78989;SDS011;68390;52.130;21.218;2023-07-02T08:18:23;7.27;;;4.93;;
78989;SDS011;68390;52.130;21.218;2023-07-02T08:20:49;9.38;;;4.85;;
78989;SDS011;68390;52.130;21.218;2023-07-02T08:23:14;8.90;;;4.85;;
78989;SDS011;68390;52.130;21.218;2023-07-02T08:25:39;6.88;;;4.80;;
78989;SDS011;68390;52.130;21.218;2023-07-02T08:28:05;8.30;;;5.07;;
78989;SDS011;68390;52.130;21.218;2023-07-02T08:30:30;6.40;;;5.28;;
78989;SDS011;68390;52.130;21.218;2023-07-02T08:32:55;7.07;;;4.22;;
78989;SDS011;68390;52.130;21.218;2023-07-02T08:35:22;6.22;;;4.65;;
78989;SDS011;68390;52.130;21.218;2023-07-02T08:37:48;7.43;;;4.32;;
78989;SDS011;68390;52.130;21.218;2023-07-02T08:40:19;8.52;;;4.95;;
78989;SDS011;68390;52.130;21.218;2023-07-02T08:42:46;7.57;;;4.13;;
78989;SDS011;68390;52.130;21.218;2023-07-02T08:45:15;6.32;;;4.30;;
78989;SDS011;68390;52.130;21.218;2023-07-02T08:47:42;6.82;;;3.88;;
78989;SDS011;68390;52.130;21.218;2023-07-02T08:50:09;6.07;;;4.57;;
78989;SDS011;68390;52.130;21.218;2023-07-02T08:52:34;5.53;;;4.40;;
78989;SDS011;68390;52.130;21.218;2023-07-02T08:55:00;5.82;;;4.05;;
78989;SDS011;68390;52.130;21.218;2023-07-02T08:57:25;6.72;;;4.22;;
78989;SDS011;68390;52.130;21.218;2023-07-02T08:59:51;6.07;;;4.45;;
78989;SDS011;68390;52.130;21.218;2023-07-02T09:02:16;5.75;;;4.10;;
78989;SDS011;68390;52.130;21.218;2023-07-02T09:04:42;6.80;;;4.07;;
78989;SDS011;68390;52.130;21.218;2023-07-02T09:07:08;6.15;;;3.80;;
78989;SDS011;68390;52.130;21.218;2023-07-02T09:09:44;5.15;;;4.13;;
78989;SDS011;68390;52.130;21.218;2023-07-02T09:15:00;7.22;;;3.45;;
78989;SDS011;68390;52.130;21.218;2023-07-02T09:17:37;5.78;;;3.63;;
78989;SDS011;68390;52.130;21.218;2023-07-02T09:20:03;5.43;;;3.47;;
78989;SDS011;68390;52.130;21.218;2023-07-02T09:22:32;5.85;;;3.55;;
78989;SDS011;68390;52.130;21.218;2023-07-02T09:24:58;6.43;;;3.88;;
78989;SDS011;68390;52.130;21.218;2023-07-02T09:30:12;5.22;;;3.78;;
78989;SDS011;68390;52.130;21.218;2023-07-02T09:32:40;5.38;;;3.60;;
78989;SDS011;68390;52.130;21.218;2023-07-02T09:35:06;7.18;;;3.88;;
78989;SDS011;68390;52.130;21.218;2023-07-02T09:37:32;5.97;;;3.63;;
78989;SDS011;68390;52.130;21.218;2023-07-02T09:39:57;7.22;;;4.03;;
78989;SDS011;68390;52.130;21.218;2023-07-02T09:42:24;5.72;;;3.67;;
78989;SDS011;68390;52.130;21.218;2023-07-02T09:44:51;7.75;;;4.07;;
78989;SDS011;68390;52.130;21.218;2023-07-02T09:47:18;5.38;;;3.80;;
78989;SDS011;68390;52.130;21.218;2023-07-02T09:49:52;7.95;;;4.38;;
78989;SDS011;68390;52.130;21.218;2023-07-02T09:52:20;5.35;;;3.80;;
78989;SDS011;68390;52.130;21.218;2023-07-02T09:54:46;5.15;;;3.88;;
78989;SDS011;68390;52.130;21.218;2023-07-02T09:57:11;5.72;;;3.70;;
78989;SDS011;68390;52.130;21.218;2023-07-02T09:59:37;5.95;;;3.90;;
78989;SDS011;68390;52.130;21.218;2023-07-02T10:02:03;6.38;;;4.18;;
78989;SDS011;68390;52.130;21.218;2023-07-02T10:04:39;5.32;;;3.85;;
78989;SDS011;68390;52.130;21.218;2023-07-02T10:07:26;4.90;;;4.07;;
78989;SDS011;68390;52.130;21.218;2023-07-02T10:09:53;5.97;;;3.78;;
78989;SDS011;68390;52.130;21.218;2023-07-02T10:12:22;4.95;;;3.75;;
78989;SDS011;68390;52.130;21.218;2023-07-02T10:14:48;5.93;;;3.72;;
78989;SDS011;68390;52.130;21.218;2023-07-02T10:17:25;5.35;;;3.70;;
78989;SDS011;68390;52.130;21.218;2023-07-02T10:19:56;6.18;;;3.90;;
78989;SDS011;68390;52.130;21.218;2023-07-02T10:22:23;5.78;;;3.80;;
78989;SDS011;68390;52.130;21.218;2023-07-02T10:24:55;5.72;;;4.03;;
78989;SDS011;68390;52.130;21.218;2023-07-02T10:27:33;4.65;;;3.58;;
78989;SDS011;68390;52.130;21.218;2023-07-02T10:29:59;5.93;;;3.72;;
78989;SDS011;68390;52.130;21.218;2023-07-02T10:32:28;5.72;;;3.75;;
78989;SDS011;68390;52.130;21.218;2023-07-02T10:34:54;4.75;;;4.10;;
78989;SDS011;68390;52.130;21.218;2023-07-02T10:37:19;4.70;;;3.72;;
78989;SDS011;68390;52.130;21.218;2023-07-02T10:39:45;5.25;;;3.65;;
78989;SDS011;68390;52.130;21.218;2023-07-02T10:42:11;8.32;;;3.90;;
78989;SDS011;68390;52.130;21.218;2023-07-02T10:44:46;5.38;;;3.80;;
78989;SDS011;68390;52.130;21.218;2023-07-02T10:47:13;4.63;;;3.95;;
78989;SDS011;68390;52.130;21.218;2023-07-02T10:49:38;5.13;;;3.40;;
78989;SDS011;68390;52.130;21.218;2023-07-02T10:52:04;4.43;;;3.60;;
78989;SDS011;68390;52.130;21.218;2023-07-02T10:57:08;7.47;;;3.47;;
78989;SDS011;68390;52.130;21.218;2023-07-02T10:59:34;5.47;;;3.42;;
78989;SDS011;68390;52.130;21.218;2023-07-02T11:02:00;4.40;;;3.47;;
78989;SDS011;68390;52.130;21.218;2023-07-02T11:04:28;4.90;;;2.97;;
78989;SDS011;68390;52.130;21.218;2023-07-02T11:06:54;5.95;;;3.58;;
78989;SDS011;68390;52.130;21.218;2023-07-02T11:09:20;5.03;;;3.28;;
78989;SDS011;68390;52.130;21.218;2023-07-02T11:11:49;5.53;;;2.90;;
78989;SDS011;68390;52.130;21.218;2023-07-02T11:14:25;3.88;;;3.25;;
78989;SDS011;68390;52.130;21.218;2023-07-02T11:19:20;4.93;;;2.80;;
78989;SDS011;68390;52.130;21.218;2023-07-02T11:21:52;4.88;;;2.83;;
78989;SDS011;68390;52.130;21.218;2023-07-02T11:24:35;3.60;;;2.85;;
78989;SDS011;68390;52.130;21.218;2023-07-02T11:27:04;3.08;;;2.63;;
78989;SDS011;68390;52.130;21.218;2023-07-02T11:29:30;4.57;;;3.00;;
78989;SDS011;68390;52.130;21.218;2023-07-02T11:32:10;4.63;;;2.90;;
78989;SDS011;68390;52.130;21.218;2023-07-02T11:34:37;4.95;;;3.00;;
78989;SDS011;68390;52.130;21.218;2023-07-02T11:37:03;5.40;;;3.20;;
78989;SDS011;68390;52.130;21.218;2023-07-02T11:39:29;4.65;;;3.10;;
78989;SDS011;68390;52.130;21.218;2023-07-02T11:41:55;3.80;;;3.25;;
78989;SDS011;68390;52.130;21.218;2023-07-02T11:44:20;4.93;;;3.63;;
78989;SDS011;68390;52.130;21.218;2023-07-02T11:46:47;6.05;;;2.90;;
78989;SDS011;68390;52.130;21.218;2023-07-02T11:49:13;4.82;;;3.13;;
78989;SDS011;68390;52.130;21.218;2023-07-02T11:51:39;4.55;;;3.10;;
78989;SDS011;68390;52.130;21.218;2023-07-02T11:54:05;4.10;;;2.90;;
78989;SDS011;68390;52.130;21.218;2023-07-02T11:56:31;3.80;;;3.08;;
78989;SDS011;68390;52.130;21.218;2023-07-02T11:58:57;4.65;;;3.25;;
78989;SDS011;68390;52.130;21.218;2023-07-02T12:01:22;4.13;;;2.90;;
78989;SDS011;68390;52.130;21.218;2023-07-02T12:03:48;3.92;;;2.92;;
78989;SDS011;68390;52.130;21.218;2023-07-02T12:06:13;6.00;;;3.08;;
78989;SDS011;68390;52.130;21.218;2023-07-02T12:08:39;4.30;;;2.80;;
78989;SDS011;68390;52.130;21.218;2023-07-02T12:11:04;3.33;;;2.60;;
78989;SDS011;68390;52.130;21.218;2023-07-02T12:13:29;2.90;;;2.50;;
78989;SDS011;68390;52.130;21.218;2023-07-02T12:15:55;5.30;;;3.10;;
78989;SDS011;68390;52.130;21.218;2023-07-02T12:18:20;3.30;;;2.60;;
78989;SDS011;68390;52.130;21.218;2023-07-02T12:20:46;4.85;;;3.22;;
78989;SDS011;68390;52.130;21.218;2023-07-02T12:23:11;3.90;;;2.70;;
78989;SDS011;68390;52.130;21.218;2023-07-02T12:25:37;4.22;;;2.70;;
78989;SDS011;68390;52.130;21.218;2023-07-02T12:28:03;7.47;;;3.10;;
78989;SDS011;68390;52.130;21.218;2023-07-02T12:30:29;3.88;;;2.90;;
78989;SDS011;68390;52.130;21.218;2023-07-02T12:32:55;4.28;;;2.80;;
78989;SDS011;68390;52.130;21.218;2023-07-02T12:35:20;3.28;;;2.85;;
78989;SDS011;68390;52.130;21.218;2023-07-02T12:37:48;4.43;;;3.00;;
78989;SDS011;68390;52.130;21.218;2023-07-02T12:40:18;4.07;;;2.80;;
78989;SDS011;68390;52.130;21.218;2023-07-02T12:42:45;4.05;;;2.58;;
78989;SDS011;68390;52.130;21.218;2023-07-02T12:45:12;3.55;;;2.60;;
78989;SDS011;68390;52.130;21.218;2023-07-02T12:47:38;4.13;;;2.70;;
78989;SDS011;68390;52.130;21.218;2023-07-02T12:50:05;3.13;;;2.72;;
78989;SDS011;68390;52.130;21.218;2023-07-02T12:52:31;5.18;;;2.80;;
78989;SDS011;68390;52.130;21.218;2023-07-02T12:54:56;3.58;;;2.58;;
78989;SDS011;68390;52.130;21.218;2023-07-02T12:57:22;6.25;;;2.40;;
78989;SDS011;68390;52.130;21.218;2023-07-02T12:59:47;4.47;;;2.78;;
78989;SDS011;68390;52.130;21.218;2023-07-02T13:02:12;3.00;;;2.35;;
78989;SDS011;68390;52.130;21.218;2023-07-02T13:04:38;4.15;;;2.67;;
78989;SDS011;68390;52.130;21.218;2023-07-02T13:07:03;3.53;;;2.25;;
78989;SDS011;68390;52.130;21.218;2023-07-02T13:09:29;3.20;;;2.70;;
78989;SDS011;68390;52.130;21.218;2023-07-02T13:11:54;3.38;;;2.30;;
78989;SDS011;68390;52.130;21.218;2023-07-02T13:14:20;3.63;;;2.13;;
78989;SDS011;68390;52.130;21.218;2023-07-02T13:16:45;3.35;;;2.40;;
78989;SDS011;68390;52.130;21.218;2023-07-02T13:19:10;4.63;;;2.53;;
78989;SDS011;68390;52.130;21.218;2023-07-02T13:21:36;3.90;;;2.20;;
78989;SDS011;68390;52.130;21.218;2023-07-02T13:24:01;2.85;;;2.08;;
78989;SDS011;68390;52.130;21.218;2023-07-02T13:26:27;4.40;;;2.40;;
78989;SDS011;68390;52.130;21.218;2023-07-02T13:28:52;3.17;;;2.40;;
78989;SDS011;68390;52.130;21.218;2023-07-02T13:31:18;3.63;;;2.30;;
78989;SDS011;68390;52.130;21.218;2023-07-02T13:33:43;3.53;;;2.20;;
78989;SDS011;68390;52.130;21.218;2023-07-02T13:36:09;4.47;;;2.30;;
78989;SDS011;68390;52.130;21.218;2023-07-02T13:38:35;6.15;;;2.33;;
78989;SDS011;68390;52.130;21.218;2023-07-02T13:41:01;6.53;;;3.15;;
78989;SDS011;68390;52.130;21.218;2023-07-02T13:43:26;4.03;;;2.00;;
78989;SDS011;68390;52.130;21.218;2023-07-02T13:45:51;3.20;;;1.92;;
78989;SDS011;68390;52.130;21.218;2023-07-02T13:48:17;3.95;;;2.35;;
78989;SDS011;68390;52.130;21.218;2023-07-02T13:50:42;3.47;;;2.10;;
78989;SDS011;68390;52.130;21.218;2023-07-02T13:53:08;2.92;;;2.00;;
78989;SDS011;68390;52.130;21.218;2023-07-02T13:55:33;3.85;;;2.50;;
78989;SDS011;68390;52.130;21.218;2023-07-02T13:57:59;5.07;;;2.05;;
78989;SDS011;68390;52.130;21.218;2023-07-02T14:00:25;3.70;;;2.15;;
78989;SDS011;68390;52.130;21.218;2023-07-02T14:05:19;5.45;;;2.08;;
78989;SDS011;68390;52.130;21.218;2023-07-02T14:07:45;4.68;;;2.20;;
78989;SDS011;68390;52.130;21.218;2023-07-02T14:10:11;3.88;;;1.92;;
78989;SDS011;68390;52.130;21.218;2023-07-02T14:12:37;4.55;;;2.40;;
78989;SDS011;68390;52.130;21.218;2023-07-02T14:15:06;5.82;;;2.85;;
78989;SDS011;68390;52.130;21.218;2023-07-02T14:17:33;4.38;;;2.53;;
78989;SDS011;68390;52.130;21.218;2023-07-02T14:19:58;6.97;;;3.40;;
78989;SDS011;68390;52.130;21.218;2023-07-02T14:22:23;8.75;;;3.95;;
78989;SDS011;68390;52.130;21.218;2023-07-02T14:24:49;5.05;;;2.45;;
78989;SDS011;68390;52.130;21.218;2023-07-02T14:27:14;3.70;;;2.70;;
78989;SDS011;68390;52.130;21.218;2023-07-02T14:29:40;5.22;;;2.58;;